sensor_id;sensor_type;location;lat;lon;timestamp;temperature;humidity
41882;DHT22;27562;47.524;12.404;2023-04-25T00:00:16;6.40;99.90
41882;DHT22;27562;47.524;12.404;2023-04-25T00:02:42;6.30;99.90
41882;DHT22;27562;47.524;12.404;2023-04-25T00:05:08;6.20;99.90
41882;DHT22;27562;47.524;12.404;2023-04-25T00:07:34;6.20;99.90
41882;DHT22;27562;47.524;12.404;2023-04-25T00:10:00;6.30;99.90
41882;DHT22;27562;47.524;12.404;2023-04-25T00:12:26;6.30;99.90
41882;DHT22;27562;47.524;12.404;2023-04-25T00:14:54;6.30;99.90
41882;DHT22;27562;47.524;12.404;2023-04-25T00:17:23;6.40;99.90
41882;DHT22;27562;47.524;12.404;2023-04-25T00:19:52;6.40;99.90
41882;DHT22;27562;47.524;12.404;2023-04-25T00:22:18;6.40;99.90
41882;DHT22;27562;47.524;12.404;2023-04-25T00:24:43;6.40;99.90
41882;DHT22;27562;47.524;12.404;2023-04-25T00:27:09;6.40;99.90
41882;DHT22;27562;47.524;12.404;2023-04-25T00:29:35;6.40;99.90
41882;DHT22;27562;47.524;12.404;2023-04-25T00:32:01;6.30;99.90
41882;DHT22;27562;47.524;12.404;2023-04-25T00:34:27;6.30;99.90
41882;DHT22;27562;47.524;12.404;2023-04-25T00:36:52;6.20;99.90
41882;DHT22;27562;47.524;12.404;2023-04-25T00:39:18;6.30;99.90
41882;DHT22;27562;47.524;12.404;2023-04-25T00:41:45;6.30;99.90
41882;DHT22;27562;47.524;12.404;2023-04-25T00:44:11;6.20;99.90
41882;DHT22;27562;47.524;12.404;2023-04-25T00:46:38;6.20;99.90
41882;DHT22;27562;47.524;12.404;2023-04-25T00:49:05;6.10;99.90
41882;DHT22;27562;47.524;12.404;2023-04-25T00:51:31;6.20;99.90
41882;DHT22;27562;47.524;12.404;2023-04-25T00:53:57;6.20;99.90
41882;DHT22;27562;47.524;12.404;2023-04-25T00:56:23;6.20;99.90
41882;DHT22;27562;47.524;12.404;2023-04-25T00:58:49;6.10;99.90
41882;DHT22;27562;47.524;12.404;2023-04-25T01:01:15;6.10;99.90
41882;DHT22;27562;47.524;12.404;2023-04-25T01:03:42;6.00;99.90
41882;DHT22;27562;47.524;12.404;2023-04-25T01:06:09;6.00;99.90
41882;DHT22;27562;47.524;12.404;2023-04-25T01:08:36;5.90;99.90
41882;DHT22;27562;47.524;12.404;2023-04-25T01:11:02;5.90;99.90
41882;DHT22;27562;47.524;12.404;2023-04-25T01:13:28;5.90;99.90
41882;DHT22;27562;47.524;12.404;2023-04-25T01:15:54;5.90;99.90
41882;DHT22;27562;47.524;12.404;2023-04-25T01:18:20;6.00;99.90
41882;DHT22;27562;47.524;12.404;2023-04-25T01:20:47;6.00;99.90
41882;DHT22;27562;47.524;12.404;2023-04-25T01:23:16;6.10;99.90
41882;DHT22;27562;47.524;12.404;2023-04-25T01:25:42;6.10;99.90
41882;DHT22;27562;47.524;12.404;2023-04-25T01:28:08;6.10;99.90
41882;DHT22;27562;47.524;12.404;2023-04-25T01:30:34;6.20;99.90
41882;DHT22;27562;47.524;12.404;2023-04-25T01:33:01;6.10;99.90
41882;DHT22;27562;47.524;12.404;2023-04-25T01:35:28;6.20;99.90
41882;DHT22;27562;47.524;12.404;2023-04-25T01:37:53;6.10;99.90
41882;DHT22;27562;47.524;12.404;2023-04-25T01:40:20;6.10;99.90
41882;DHT22;27562;47.524;12.404;2023-04-25T01:42:46;6.00;99.90
41882;DHT22;27562;47.524;12.404;2023-04-25T01:45:12;5.90;99.90
41882;DHT22;27562;47.524;12.404;2023-04-25T01:47:39;5.80;99.90
41882;DHT22;27562;47.524;12.404;2023-04-25T01:50:07;5.80;99.90
41882;DHT22;27562;47.524;12.404;2023-04-25T01:52:33;5.80;99.90
41882;DHT22;27562;47.524;12.404;2023-04-25T01:55:03;5.90;99.90
41882;DHT22;27562;47.524;12.404;2023-04-25T01:57:29;5.90;99.90
41882;DHT22;27562;47.524;12.404;2023-04-25T01:59:59;6.00;99.90
41882;DHT22;27562;47.524;12.404;2023-04-25T02:02:25;6.00;99.90
41882;DHT22;27562;47.524;12.404;2023-04-25T02:04:51;6.00;99.90
41882;DHT22;27562;47.524;12.404;2023-04-25T02:07:17;6.10;99.90
41882;DHT22;27562;47.524;12.404;2023-04-25T02:09:43;6.10;99.90
41882;DHT22;27562;47.524;12.404;2023-04-25T02:12:11;6.10;99.90
41882;DHT22;27562;47.524;12.404;2023-04-25T02:14:37;6.10;99.90
41882;DHT22;27562;47.524;12.404;2023-04-25T02:17:02;6.10;99.90
41882;DHT22;27562;47.524;12.404;2023-04-25T02:19:28;6.10;99.90
41882;DHT22;27562;47.524;12.404;2023-04-25T02:21:54;6.10;99.90
41882;DHT22;27562;47.524;12.404;2023-04-25T02:24:20;6.20;99.90
41882;DHT22;27562;47.524;12.404;2023-04-25T02:26:46;6.20;99.90
41882;DHT22;27562;47.524;12.404;2023-04-25T02:29:12;6.20;99.90
41882;DHT22;27562;47.524;12.404;2023-04-25T02:31:38;6.20;99.90
41882;DHT22;27562;47.524;12.404;2023-04-25T02:34:04;6.10;99.90
41882;DHT22;27562;47.524;12.404;2023-04-25T02:36:30;6.20;99.90
41882;DHT22;27562;47.524;12.404;2023-04-25T02:39:00;6.10;99.90
41882;DHT22;27562;47.524;12.404;2023-04-25T02:41:26;6.10;99.90
41882;DHT22;27562;47.524;12.404;2023-04-25T02:43:52;6.20;99.90
41882;DHT22;27562;47.524;12.404;2023-04-25T02:46:18;6.10;99.90
41882;DHT22;27562;47.524;12.404;2023-04-25T02:48:43;6.20;99.90
41882;DHT22;27562;47.524;12.404;2023-04-25T02:51:09;6.20;99.90
41882;DHT22;27562;47.524;12.404;2023-04-25T02:53:35;6.20;99.90
41882;DHT22;27562;47.524;12.404;2023-04-25T02:56:01;6.20;99.90
41882;DHT22;27562;47.524;12.404;2023-04-25T02:58:27;6.10;99.90
41882;DHT22;27562;47.524;12.404;2023-04-25T03:00:53;6.10;99.90
41882;DHT22;27562;47.524;12.404;2023-04-25T03:03:18;6.00;99.90
41882;DHT22;27562;47.524;12.404;2023-04-25T03:05:50;6.00;99.90
41882;DHT22;27562;47.524;12.404;2023-04-25T03:08:16;6.00;99.90
41882;DHT22;27562;47.524;12.404;2023-04-25T03:10:43;5.90;99.90
41882;DHT22;27562;47.524;12.404;2023-04-25T03:13:09;5.90;99.90
41882;DHT22;27562;47.524;12.404;2023-04-25T03:15:35;5.90;99.90
41882;DHT22;27562;47.524;12.404;2023-04-25T03:18:01;5.90;99.90
41882;DHT22;27562;47.524;12.404;2023-04-25T03:20:27;5.90;99.90
41882;DHT22;27562;47.524;12.404;2023-04-25T03:22:53;5.90;99.90
41882;DHT22;27562;47.524;12.404;2023-04-25T03:25:19;5.90;99.90
41882;DHT22;27562;47.524;12.404;2023-04-25T03:27:45;5.90;99.90
41882;DHT22;27562;47.524;12.404;2023-04-25T03:30:11;5.90;99.90
41882;DHT22;27562;47.524;12.404;2023-04-25T03:32:37;5.90;99.90
41882;DHT22;27562;47.524;12.404;2023-04-25T03:35:04;5.90;99.90
41882;DHT22;27562;47.524;12.404;2023-04-25T03:37:31;5.90;99.90
41882;DHT22;27562;47.524;12.404;2023-04-25T03:39:56;5.80;99.90
41882;DHT22;27562;47.524;12.404;2023-04-25T03:42:22;5.70;99.90
41882;DHT22;27562;47.524;12.404;2023-04-25T03:44:51;5.70;99.90
41882;DHT22;27562;47.524;12.404;2023-04-25T03:47:17;5.70;99.90
41882;DHT22;27562;47.524;12.404;2023-04-25T03:49:43;5.70;99.90
41882;DHT22;27562;47.524;12.404;2023-04-25T03:52:10;5.70;99.90
41882;DHT22;27562;47.524;12.404;2023-04-25T03:54:35;5.70;99.90
41882;DHT22;27562;47.524;12.404;2023-04-25T03:57:01;5.70;99.90
41882;DHT22;27562;47.524;12.404;2023-04-25T03:59:27;5.70;99.90
41882;DHT22;27562;47.524;12.404;2023-04-25T04:01:52;5.60;99.90
41882;DHT22;27562;47.524;12.404;2023-04-25T04:04:18;5.60;99.90
41882;DHT22;27562;47.524;12.404;2023-04-25T04:06:44;5.70;99.90
41882;DHT22;27562;47.524;12.404;2023-04-25T04:09:11;5.70;99.90
41882;DHT22;27562;47.524;12.404;2023-04-25T04:11:38;5.60;99.90
41882;DHT22;27562;47.524;12.404;2023-04-25T04:14:07;5.70;99.90
41882;DHT22;27562;47.524;12.404;2023-04-25T04:16:33;5.70;99.90
41882;DHT22;27562;47.524;12.404;2023-04-25T04:18:59;5.70;99.90
41882;DHT22;27562;47.524;12.404;2023-04-25T04:21:24;5.60;99.90
41882;DHT22;27562;47.524;12.404;2023-04-25T04:23:52;5.70;99.90
41882;DHT22;27562;47.524;12.404;2023-04-25T04:26:17;5.60;99.90
41882;DHT22;27562;47.524;12.404;2023-04-25T04:28:43;5.60;99.90
41882;DHT22;27562;47.524;12.404;2023-04-25T04:31:10;5.60;99.90
41882;DHT22;27562;47.524;12.404;2023-04-25T04:33:36;5.60;99.90
41882;DHT22;27562;47.524;12.404;2023-04-25T04:36:03;5.60;99.90
41882;DHT22;27562;47.524;12.404;2023-04-25T04:38:29;5.70;99.90
41882;DHT22;27562;47.524;12.404;2023-04-25T04:40:55;5.70;99.90
41882;DHT22;27562;47.524;12.404;2023-04-25T04:43:21;5.70;99.90
41882;DHT22;27562;47.524;12.404;2023-04-25T04:45:48;5.70;99.90
41882;DHT22;27562;47.524;12.404;2023-04-25T04:48:15;5.70;99.90
41882;DHT22;27562;47.524;12.404;2023-04-25T04:50:43;5.70;99.90
41882;DHT22;27562;47.524;12.404;2023-04-25T04:53:11;5.70;99.90
41882;DHT22;27562;47.524;12.404;2023-04-25T04:55:37;5.80;99.90
41882;DHT22;27562;47.524;12.404;2023-04-25T04:58:03;5.80;99.90
41882;DHT22;27562;47.524;12.404;2023-04-25T05:00:28;5.80;99.90
41882;DHT22;27562;47.524;12.404;2023-04-25T05:02:58;5.80;99.90
41882;DHT22;27562;47.524;12.404;2023-04-25T05:05:24;5.80;99.90
41882;DHT22;27562;47.524;12.404;2023-04-25T05:07:50;5.80;99.90
41882;DHT22;27562;47.524;12.404;2023-04-25T05:10:17;5.80;99.90
41882;DHT22;27562;47.524;12.404;2023-04-25T05:12:44;5.80;99.90
41882;DHT22;27562;47.524;12.404;2023-04-25T05:15:10;5.80;99.90
41882;DHT22;27562;47.524;12.404;2023-04-25T05:17:36;5.80;99.90
41882;DHT22;27562;47.524;12.404;2023-04-25T05:20:02;5.80;99.90
41882;DHT22;27562;47.524;12.404;2023-04-25T05:22:28;5.70;99.90
41882;DHT22;27562;47.524;12.404;2023-04-25T05:24:54;5.80;99.90
41882;DHT22;27562;47.524;12.404;2023-04-25T05:27:20;5.80;99.90
41882;DHT22;27562;47.524;12.404;2023-04-25T05:29:45;5.80;99.90
41882;DHT22;27562;47.524;12.404;2023-04-25T05:32:11;5.90;99.90
41882;DHT22;27562;47.524;12.404;2023-04-25T05:34:37;5.90;99.90
41882;DHT22;27562;47.524;12.404;2023-04-25T05:37:03;6.00;99.90
41882;DHT22;27562;47.524;12.404;2023-04-25T05:39:28;6.00;99.90
41882;DHT22;27562;47.524;12.404;2023-04-25T05:41:54;6.00;99.90
41882;DHT22;27562;47.524;12.404;2023-04-25T05:44:20;6.10;99.90
41882;DHT22;27562;47.524;12.404;2023-04-25T05:46:45;6.10;99.90
41882;DHT22;27562;47.524;12.404;2023-04-25T05:49:11;6.20;99.90
41882;DHT22;27562;47.524;12.404;2023-04-25T05:51:37;6.20;99.90
41882;DHT22;27562;47.524;12.404;2023-04-25T05:54:03;6.30;99.90
41882;DHT22;27562;47.524;12.404;2023-04-25T05:56:28;6.30;99.90
41882;DHT22;27562;47.524;12.404;2023-04-25T05:58:54;6.40;99.90
41882;DHT22;27562;47.524;12.404;2023-04-25T06:01:21;6.40;99.90
41882;DHT22;27562;47.524;12.404;2023-04-25T06:03:47;6.50;99.90
41882;DHT22;27562;47.524;12.404;2023-04-25T06:06:13;6.50;99.90
41882;DHT22;27562;47.524;12.404;2023-04-25T06:08:38;6.50;99.90
41882;DHT22;27562;47.524;12.404;2023-04-25T06:11:04;6.50;99.90
41882;DHT22;27562;47.524;12.404;2023-04-25T06:13:30;6.60;99.90
41882;DHT22;27562;47.524;12.404;2023-04-25T06:15:55;6.60;99.90
41882;DHT22;27562;47.524;12.404;2023-04-25T06:18:21;6.70;99.90
41882;DHT22;27562;47.524;12.404;2023-04-25T06:20:47;6.70;99.90
41882;DHT22;27562;47.524;12.404;2023-04-25T06:23:12;6.70;99.90
41882;DHT22;27562;47.524;12.404;2023-04-25T06:25:38;6.80;99.90
41882;DHT22;27562;47.524;12.404;2023-04-25T06:28:04;6.80;99.90
41882;DHT22;27562;47.524;12.404;2023-04-25T06:30:29;6.80;99.90
41882;DHT22;27562;47.524;12.404;2023-04-25T06:32:55;6.90;99.90
41882;DHT22;27562;47.524;12.404;2023-04-25T06:35:21;7.00;99.90
41882;DHT22;27562;47.524;12.404;2023-04-25T06:37:46;7.00;99.90
41882;DHT22;27562;47.524;12.404;2023-04-25T06:40:12;7.10;99.90
41882;DHT22;27562;47.524;12.404;2023-04-25T06:42:38;7.10;99.90
41882;DHT22;27562;47.524;12.404;2023-04-25T06:45:04;7.20;99.90
41882;DHT22;27562;47.524;12.404;2023-04-25T06:47:30;7.20;99.90
41882;DHT22;27562;47.524;12.404;2023-04-25T06:49:56;7.30;99.90
41882;DHT22;27562;47.524;12.404;2023-04-25T06:52:21;7.30;99.90
41882;DHT22;27562;47.524;12.404;2023-04-25T06:54:47;7.30;99.90
41882;DHT22;27562;47.524;12.404;2023-04-25T06:57:13;7.40;99.90
41882;DHT22;27562;47.524;12.404;2023-04-25T06:59:38;7.40;99.90
41882;DHT22;27562;47.524;12.404;2023-04-25T07:02:05;7.50;99.90
41882;DHT22;27562;47.524;12.404;2023-04-25T07:04:31;7.60;99.90
41882;DHT22;27562;47.524;12.404;2023-04-25T07:06:57;7.60;99.90
41882;DHT22;27562;47.524;12.404;2023-04-25T07:09:22;7.70;99.90
41882;DHT22;27562;47.524;12.404;2023-04-25T07:11:48;7.80;99.90
41882;DHT22;27562;47.524;12.404;2023-04-25T07:14:14;7.90;99.90
41882;DHT22;27562;47.524;12.404;2023-04-25T07:16:40;8.00;99.90
41882;DHT22;27562;47.524;12.404;2023-04-25T07:19:06;8.10;99.90
41882;DHT22;27562;47.524;12.404;2023-04-25T07:21:32;8.10;99.90
41882;DHT22;27562;47.524;12.404;2023-04-25T07:23:58;8.20;99.90
41882;DHT22;27562;47.524;12.404;2023-04-25T07:26:24;8.30;99.90
41882;DHT22;27562;47.524;12.404;2023-04-25T07:28:50;8.40;99.90
41882;DHT22;27562;47.524;12.404;2023-04-25T07:31:17;8.50;99.90
41882;DHT22;27562;47.524;12.404;2023-04-25T07:33:44;8.50;99.90
41882;DHT22;27562;47.524;12.404;2023-04-25T07:36:11;8.50;99.90
41882;DHT22;27562;47.524;12.404;2023-04-25T07:38:38;8.60;99.90
41882;DHT22;27562;47.524;12.404;2023-04-25T07:41:04;8.60;99.90
41882;DHT22;27562;47.524;12.404;2023-04-25T07:43:29;8.60;99.90
41882;DHT22;27562;47.524;12.404;2023-04-25T07:45:56;8.60;99.90
41882;DHT22;27562;47.524;12.404;2023-04-25T07:48:21;8.60;99.90
41882;DHT22;27562;47.524;12.404;2023-04-25T07:50:47;8.60;99.90
41882;DHT22;27562;47.524;12.404;2023-04-25T07:53:13;8.70;99.90
41882;DHT22;27562;47.524;12.404;2023-04-25T07:55:39;8.70;99.90
41882;DHT22;27562;47.524;12.404;2023-04-25T07:58:08;8.60;99.90
41882;DHT22;27562;47.524;12.404;2023-04-25T08:00:35;8.60;99.90
41882;DHT22;27562;47.524;12.404;2023-04-25T08:03:01;8.50;99.90
41882;DHT22;27562;47.524;12.404;2023-04-25T08:05:26;8.40;99.90
41882;DHT22;27562;47.524;12.404;2023-04-25T08:07:52;8.30;99.90
41882;DHT22;27562;47.524;12.404;2023-04-25T08:10:18;8.30;99.90
41882;DHT22;27562;47.524;12.404;2023-04-25T08:12:44;8.30;99.90
41882;DHT22;27562;47.524;12.404;2023-04-25T08:15:09;8.20;99.90
41882;DHT22;27562;47.524;12.404;2023-04-25T08:17:35;8.20;99.90
41882;DHT22;27562;47.524;12.404;2023-04-25T08:20:01;8.10;99.90
41882;DHT22;27562;47.524;12.404;2023-04-25T08:22:30;8.10;99.90
41882;DHT22;27562;47.524;12.404;2023-04-25T08:24:56;8.10;99.90
41882;DHT22;27562;47.524;12.404;2023-04-25T08:27:22;8.20;99.90
41882;DHT22;27562;47.524;12.404;2023-04-25T08:29:47;8.30;99.90
41882;DHT22;27562;47.524;12.404;2023-04-25T08:32:13;8.30;99.90
41882;DHT22;27562;47.524;12.404;2023-04-25T08:34:39;8.40;99.90
41882;DHT22;27562;47.524;12.404;2023-04-25T08:37:08;8.40;99.90
41882;DHT22;27562;47.524;12.404;2023-04-25T08:39:35;8.50;99.90
41882;DHT22;27562;47.524;12.404;2023-04-25T08:42:03;8.60;99.90
41882;DHT22;27562;47.524;12.404;2023-04-25T08:44:33;8.70;99.90
41882;DHT22;27562;47.524;12.404;2023-04-25T08:46:59;8.80;99.90
41882;DHT22;27562;47.524;12.404;2023-04-25T08:49:25;8.90;99.90
41882;DHT22;27562;47.524;12.404;2023-04-25T08:51:52;8.90;99.90
41882;DHT22;27562;47.524;12.404;2023-04-25T08:54:20;9.00;99.90
41882;DHT22;27562;47.524;12.404;2023-04-25T08:56:49;9.10;99.90
41882;DHT22;27562;47.524;12.404;2023-04-25T08:59:15;9.30;99.90
41882;DHT22;27562;47.524;12.404;2023-04-25T09:01:41;9.40;99.90
41882;DHT22;27562;47.524;12.404;2023-04-25T09:04:06;9.60;99.90
41882;DHT22;27562;47.524;12.404;2023-04-25T09:06:32;9.70;99.90
41882;DHT22;27562;47.524;12.404;2023-04-25T09:09:06;9.70;99.90
41882;DHT22;27562;47.524;12.404;2023-04-25T09:11:34;9.90;99.90
41882;DHT22;27562;47.524;12.404;2023-04-25T09:14:14;10.10;99.90
41882;DHT22;27562;47.524;12.404;2023-04-25T09:17:13;10.20;99.90
41882;DHT22;27562;47.524;12.404;2023-04-25T09:19:39;10.30;99.90
41882;DHT22;27562;47.524;12.404;2023-04-25T09:22:06;10.40;99.90
41882;DHT22;27562;47.524;12.404;2023-04-25T09:27:04;10.30;99.90
41882;DHT22;27562;47.524;12.404;2023-04-25T09:29:32;10.30;99.90
41882;DHT22;27562;47.524;12.404;2023-04-25T09:32:22;10.40;99.90
41882;DHT22;27562;47.524;12.404;2023-04-25T09:34:50;10.60;99.90
41882;DHT22;27562;47.524;12.404;2023-04-25T09:37:21;10.90;99.90
41882;DHT22;27562;47.524;12.404;2023-04-25T09:39:49;11.20;99.90
41882;DHT22;27562;47.524;12.404;2023-04-25T09:42:16;11.40;99.90
41882;DHT22;27562;47.524;12.404;2023-04-25T09:44:46;11.60;99.90
41882;DHT22;27562;47.524;12.404;2023-04-25T09:47:13;11.80;99.90
41882;DHT22;27562;47.524;12.404;2023-04-25T09:49:42;12.00;99.90
41882;DHT22;27562;47.524;12.404;2023-04-25T09:52:10;12.00;99.90
41882;DHT22;27562;47.524;12.404;2023-04-25T09:54:38;11.80;97.70
41882;DHT22;27562;47.524;12.404;2023-04-25T09:57:23;11.60;98.60
41882;DHT22;27562;47.524;12.404;2023-04-25T09:59:51;11.40;99.10
41882;DHT22;27562;47.524;12.404;2023-04-25T10:02:18;11.40;99.40
41882;DHT22;27562;47.524;12.404;2023-04-25T10:04:48;11.20;98.80
41882;DHT22;27562;47.524;12.404;2023-04-25T10:07:14;11.10;98.50
41882;DHT22;27562;47.524;12.404;2023-04-25T10:09:40;11.10;98.70
41882;DHT22;27562;47.524;12.404;2023-04-25T10:12:07;11.20;98.50
41882;DHT22;27562;47.524;12.404;2023-04-25T10:14:34;11.20;95.00
41882;DHT22;27562;47.524;12.404;2023-04-25T10:17:00;11.20;97.80
41882;DHT22;27562;47.524;12.404;2023-04-25T10:19:27;11.40;98.40
41882;DHT22;27562;47.524;12.404;2023-04-25T10:24:41;11.80;95.20
41882;DHT22;27562;47.524;12.404;2023-04-25T10:27:07;11.80;94.50
41882;DHT22;27562;47.524;12.404;2023-04-25T10:29:33;11.90;95.10
41882;DHT22;27562;47.524;12.404;2023-04-25T10:32:00;11.90;96.00
41882;DHT22;27562;47.524;12.404;2023-04-25T10:34:40;12.00;94.90
41882;DHT22;27562;47.524;12.404;2023-04-25T10:37:09;12.00;94.40
41882;DHT22;27562;47.524;12.404;2023-04-25T10:39:35;12.00;92.90
41882;DHT22;27562;47.524;12.404;2023-04-25T10:42:03;11.90;92.40
41882;DHT22;27562;47.524;12.404;2023-04-25T10:44:30;11.80;91.60
41882;DHT22;27562;47.524;12.404;2023-04-25T10:47:00;11.70;91.20
41882;DHT22;27562;47.524;12.404;2023-04-25T10:49:41;11.70;92.60
41882;DHT22;27562;47.524;12.404;2023-04-25T10:52:28;11.70;91.30
41882;DHT22;27562;47.524;12.404;2023-04-25T10:54:56;11.70;90.80
41882;DHT22;27562;47.524;12.404;2023-04-25T10:57:42;11.70;91.90
41882;DHT22;27562;47.524;12.404;2023-04-25T11:00:10;11.70;90.60
41882;DHT22;27562;47.524;12.404;2023-04-25T11:02:47;11.70;89.80
41882;DHT22;27562;47.524;12.404;2023-04-25T11:05:35;11.60;86.90
41882;DHT22;27562;47.524;12.404;2023-04-25T11:08:02;11.50;89.00
41882;DHT22;27562;47.524;12.404;2023-04-25T11:10:30;11.40;90.20
41882;DHT22;27562;47.524;12.404;2023-04-25T11:12:57;11.40;90.40
41882;DHT22;27562;47.524;12.404;2023-04-25T11:15:24;11.40;90.10
41882;DHT22;27562;47.524;12.404;2023-04-25T11:17:54;11.40;86.20
41882;DHT22;27562;47.524;12.404;2023-04-25T11:20:21;11.40;86.20
41882;DHT22;27562;47.524;12.404;2023-04-25T11:22:47;11.40;86.40
41882;DHT22;27562;47.524;12.404;2023-04-25T11:25:14;11.40;88.60
41882;DHT22;27562;47.524;12.404;2023-04-25T11:27:53;11.40;89.60
41882;DHT22;27562;47.524;12.404;2023-04-25T11:30:20;11.40;89.30
41882;DHT22;27562;47.524;12.404;2023-04-25T11:32:47;11.50;85.30
41882;DHT22;27562;47.524;12.404;2023-04-25T11:35:13;11.50;83.10
41882;DHT22;27562;47.524;12.404;2023-04-25T11:37:40;11.50;87.30
41882;DHT22;27562;47.524;12.404;2023-04-25T11:40:07;11.60;88.20
41882;DHT22;27562;47.524;12.404;2023-04-25T11:42:34;11.60;89.30
41882;DHT22;27562;47.524;12.404;2023-04-25T11:45:03;11.70;86.00
41882;DHT22;27562;47.524;12.404;2023-04-25T11:47:30;11.80;86.60
41882;DHT22;27562;47.524;12.404;2023-04-25T11:49:58;11.80;83.50
41882;DHT22;27562;47.524;12.404;2023-04-25T11:52:34;11.80;85.60
41882;DHT22;27562;47.524;12.404;2023-04-25T11:55:00;11.70;85.50
41882;DHT22;27562;47.524;12.404;2023-04-25T11:57:26;11.60;85.40
41882;DHT22;27562;47.524;12.404;2023-04-25T11:59:52;11.60;85.30
41882;DHT22;27562;47.524;12.404;2023-04-25T12:02:24;11.50;82.30
41882;DHT22;27562;47.524;12.404;2023-04-25T12:04:51;11.50;82.40
41882;DHT22;27562;47.524;12.404;2023-04-25T12:07:16;11.50;82.90
41882;DHT22;27562;47.524;12.404;2023-04-25T12:09:51;11.50;83.40
41882;DHT22;27562;47.524;12.404;2023-04-25T12:12:17;11.50;83.10
41882;DHT22;27562;47.524;12.404;2023-04-25T12:14:47;11.60;85.30
41882;DHT22;27562;47.524;12.404;2023-04-25T12:17:14;11.60;83.90
41882;DHT22;27562;47.524;12.404;2023-04-25T12:19:40;11.50;82.70
41882;DHT22;27562;47.524;12.404;2023-04-25T12:22:19;11.50;82.70
41882;DHT22;27562;47.524;12.404;2023-04-25T12:24:46;11.60;81.80
41882;DHT22;27562;47.524;12.404;2023-04-25T12:27:16;11.60;82.30
41882;DHT22;27562;47.524;12.404;2023-04-25T12:29:51;11.50;82.90
41882;DHT22;27562;47.524;12.404;2023-04-25T12:32:17;11.50;81.90
41882;DHT22;27562;47.524;12.404;2023-04-25T12:34:43;11.60;84.70
41882;DHT22;27562;47.524;12.404;2023-04-25T12:37:09;11.60;83.70
41882;DHT22;27562;47.524;12.404;2023-04-25T12:39:35;11.70;82.60
41882;DHT22;27562;47.524;12.404;2023-04-25T12:42:01;11.70;83.90
41882;DHT22;27562;47.524;12.404;2023-04-25T12:44:27;11.80;84.80
41882;DHT22;27562;47.524;12.404;2023-04-25T12:46:53;11.90;83.30
41882;DHT22;27562;47.524;12.404;2023-04-25T12:49:19;12.10;85.90
41882;DHT22;27562;47.524;12.404;2023-04-25T12:51:45;12.10;83.70
41882;DHT22;27562;47.524;12.404;2023-04-25T12:54:12;12.20;84.00
41882;DHT22;27562;47.524;12.404;2023-04-25T12:56:40;12.30;84.80
41882;DHT22;27562;47.524;12.404;2023-04-25T12:59:06;12.50;86.50
41882;DHT22;27562;47.524;12.404;2023-04-25T13:01:32;12.70;83.20
41882;DHT22;27562;47.524;12.404;2023-04-25T13:03:58;12.80;80.30
41882;DHT22;27562;47.524;12.404;2023-04-25T13:06:23;12.90;79.80
41882;DHT22;27562;47.524;12.404;2023-04-25T13:08:49;13.00;73.50
41882;DHT22;27562;47.524;12.404;2023-04-25T13:11:15;13.10;77.50
41882;DHT22;27562;47.524;12.404;2023-04-25T13:13:41;13.10;76.70
41882;DHT22;27562;47.524;12.404;2023-04-25T13:16:08;13.10;78.60
41882;DHT22;27562;47.524;12.404;2023-04-25T13:18:34;12.70;80.00
41882;DHT22;27562;47.524;12.404;2023-04-25T13:21:00;12.40;83.20
41882;DHT22;27562;47.524;12.404;2023-04-25T13:23:27;12.10;87.80
41882;DHT22;27562;47.524;12.404;2023-04-25T13:25:54;12.00;88.30
41882;DHT22;27562;47.524;12.404;2023-04-25T13:28:21;11.80;90.40
41882;DHT22;27562;47.524;12.404;2023-04-25T13:30:47;11.50;91.10
41882;DHT22;27562;47.524;12.404;2023-04-25T13:33:14;11.40;92.00
41882;DHT22;27562;47.524;12.404;2023-04-25T13:35:40;11.30;92.50
41882;DHT22;27562;47.524;12.404;2023-04-25T13:38:07;11.20;91.90
41882;DHT22;27562;47.524;12.404;2023-04-25T13:40:32;11.20;91.90
41882;DHT22;27562;47.524;12.404;2023-04-25T13:42:58;11.10;92.90
41882;DHT22;27562;47.524;12.404;2023-04-25T13:45:24;11.10;93.50
41882;DHT22;27562;47.524;12.404;2023-04-25T13:47:50;11.20;93.70
41882;DHT22;27562;47.524;12.404;2023-04-25T13:50:16;11.20;93.30
41882;DHT22;27562;47.524;12.404;2023-04-25T13:52:42;11.30;92.90
41882;DHT22;27562;47.524;12.404;2023-04-25T13:55:09;11.30;93.00
41882;DHT22;27562;47.524;12.404;2023-04-25T13:57:35;11.30;93.30
41882;DHT22;27562;47.524;12.404;2023-04-25T14:00:03;11.30;93.70
41882;DHT22;27562;47.524;12.404;2023-04-25T14:02:34;11.20;92.90
41882;DHT22;27562;47.524;12.404;2023-04-25T14:05:01;11.10;91.90
41882;DHT22;27562;47.524;12.404;2023-04-25T14:07:27;11.10;91.60
41882;DHT22;27562;47.524;12.404;2023-04-25T14:09:52;11.00;92.20
41882;DHT22;27562;47.524;12.404;2023-04-25T14:12:18;10.90;92.30
41882;DHT22;27562;47.524;12.404;2023-04-25T14:14:44;10.70;92.60
41882;DHT22;27562;47.524;12.404;2023-04-25T14:17:10;10.70;92.10
41882;DHT22;27562;47.524;12.404;2023-04-25T14:19:36;10.90;93.40
41882;DHT22;27562;47.524;12.404;2023-04-25T14:22:03;11.00;92.10
41882;DHT22;27562;47.524;12.404;2023-04-25T14:24:29;11.00;92.80
41882;DHT22;27562;47.524;12.404;2023-04-25T14:26:56;10.90;92.30
41882;DHT22;27562;47.524;12.404;2023-04-25T14:29:21;10.70;92.30
41882;DHT22;27562;47.524;12.404;2023-04-25T14:31:47;10.50;92.60
41882;DHT22;27562;47.524;12.404;2023-04-25T14:34:13;10.30;92.40
41882;DHT22;27562;47.524;12.404;2023-04-25T14:36:39;10.10;93.50
41882;DHT22;27562;47.524;12.404;2023-04-25T14:39:04;9.80;95.70
41882;DHT22;27562;47.524;12.404;2023-04-25T14:41:30;9.70;98.40
41882;DHT22;27562;47.524;12.404;2023-04-25T14:43:56;9.60;99.90
41882;DHT22;27562;47.524;12.404;2023-04-25T14:46:22;9.50;99.90
41882;DHT22;27562;47.524;12.404;2023-04-25T14:48:49;9.40;99.90
41882;DHT22;27562;47.524;12.404;2023-04-25T14:51:15;9.30;99.90
41882;DHT22;27562;47.524;12.404;2023-04-25T14:53:41;9.20;99.90
41882;DHT22;27562;47.524;12.404;2023-04-25T14:56:07;9.10;99.90
41882;DHT22;27562;47.524;12.404;2023-04-25T14:58:33;9.00;99.90
41882;DHT22;27562;47.524;12.404;2023-04-25T15:00:59;8.90;99.90
41882;DHT22;27562;47.524;12.404;2023-04-25T15:03:25;8.80;99.90
41882;DHT22;27562;47.524;12.404;2023-04-25T15:05:52;8.80;99.90
41882;DHT22;27562;47.524;12.404;2023-04-25T15:08:18;8.80;99.90
41882;DHT22;27562;47.524;12.404;2023-04-25T15:10:43;8.80;99.90
41882;DHT22;27562;47.524;12.404;2023-04-25T15:13:10;8.80;99.90
41882;DHT22;27562;47.524;12.404;2023-04-25T15:15:36;8.70;99.90
41882;DHT22;27562;47.524;12.404;2023-04-25T15:18:02;8.70;99.90
41882;DHT22;27562;47.524;12.404;2023-04-25T15:20:28;8.60;99.90
41882;DHT22;27562;47.524;12.404;2023-04-25T15:22:54;8.60;99.90
41882;DHT22;27562;47.524;12.404;2023-04-25T15:25:20;8.50;99.90
41882;DHT22;27562;47.524;12.404;2023-04-25T15:27:45;8.40;99.90